シドニー の空港の天気 - METARとTAF

シドニー国際空港 ( YSSY / SYD ) - オーストラリア ニューサウスウェールズ州、Mascot
飛行場実況気象(Metar)
観測時間06/25 23:00 AEST (06/25 13:00 UTC)
風向・風速西 3m/s
視程10km以上
天気現象
少しの雲 雲底高度 760m
気温10℃
湿度82%
気圧1031hPa
METARYSSY 251300Z 26006KT 9999 FEW025 10/07 Q1031 NOSIG
過去の天気等 Google飛行場航空写真 Wunderground天気予報

過去48時間のMETAR

飛行場予報(TAF)
発表時間: 6/25 21:06 AEST (6/25 11:06 UTC)
予報対象時間: 25日22時 AEST ~ 27日4時 AEST
風向・風速西南西 3m/s
視程10km以上
少しの雲 雲底高度 760m
26日2時 AEST から
風向・風速西北西 4m/s
視程10km以上
全天の4割程度の雲 雲底高度 910m
26日13時 AEST から
風向・風速南 5m/s
視程10km以上
少しの雲 雲底高度 1070m
26日19時 AEST から
風向・風速南東 3m/s
視程10km以上
全天の4割程度の雲 雲底高度 910m
26日22時 AEST から
風向・風速西北西 4m/s
視程10km以上
全天の4割程度の雲 雲底高度 910m
TAF YSSY 251106Z 2512/2618 25005KT 9999 FEW025
FM251600 29008KT 9999 SCT030
FM260300 18010KT 9999 FEW035
FM260900 14005KT 9999 SCT030
FM261200 29008KT 9999 SCT030